createdAt,value
2023-03-17T00:00:46.651Z,8.3
2023-03-17T00:20:50.905Z,8.7
2023-03-17T00:40:55.388Z,8.8
2023-03-17T01:00:59.852Z,8.4
2023-03-17T01:11:01.815Z,8.2
2023-03-17T01:51:09.762Z,8.9
2023-03-17T02:01:11.879Z,8.9
2023-03-17T03:01:25.019Z,9
2023-03-17T03:21:29.107Z,7.9
2023-03-17T03:31:53.200Z,7.4
2023-03-17T04:01:44.561Z,8
2023-03-17T04:31:50.972Z,7
2023-03-17T04:51:54.602Z,6.3
2023-03-17T05:01:57.018Z,6
2023-03-17T05:52:08.531Z,7.2
2023-03-17T06:12:13.269Z,7.5
2023-03-17T06:22:15.465Z,7.7
2023-03-17T06:32:20.836Z,8.4
2023-03-17T06:42:20.169Z,8.8
2023-03-17T06:52:22.242Z,9.5
2023-03-17T07:02:24.697Z,10.2
2023-03-17T07:12:27.274Z,11
2023-03-17T07:22:29.757Z,11.9
2023-03-17T07:32:31.468Z,12.7
2023-03-17T07:42:33.133Z,13
2023-03-17T07:52:35.746Z,13.6
2023-03-17T08:02:38.154Z,13.8
2023-03-17T08:12:40.203Z,13.8
2023-03-17T08:22:42.310Z,13.5
2023-03-17T08:32:44.242Z,13.5
2023-03-17T08:42:46.761Z,13.6
2023-03-17T08:52:48.412Z,13.7
2023-03-17T09:02:50.298Z,13.9
2023-03-17T09:12:51.982Z,14.2
2023-03-17T09:22:54.109Z,14.6
2023-03-17T09:32:55.947Z,15
2023-03-17T09:42:57.835Z,15.6
2023-03-17T09:53:02.697Z,15.7
2023-03-17T10:03:02.346Z,15.8
2023-03-17T10:13:04.676Z,16
2023-03-17T10:23:07.268Z,16.3
2023-03-17T10:33:09.682Z,16.3
2023-03-17T10:43:12.049Z,16.5
2023-03-17T10:53:14.324Z,16.9
2023-03-17T11:03:16.667Z,17
2023-03-17T11:13:18.899Z,17.1
2023-03-17T11:23:21.083Z,17
2023-03-17T11:43:25.550Z,17.8
2023-03-17T11:53:28.036Z,18.2
2023-03-17T12:03:30.488Z,17.9
2023-03-17T12:13:32.683Z,18
2023-03-17T12:23:35.001Z,18.3
2023-03-17T12:33:37.462Z,18.1
2023-03-17T12:43:39.421Z,18.5
2023-03-17T12:53:41.804Z,18.7
2023-03-17T13:03:43.801Z,18.4
2023-03-17T13:13:45.953Z,18.5
2023-03-17T13:23:48.463Z,18.6
2023-03-17T13:33:50.732Z,18.8
2023-03-17T13:43:52.923Z,18.6
2023-03-17T13:53:55.333Z,18.7
2023-03-17T14:03:57.563Z,18.9
2023-03-17T14:13:59.518Z,18.5
2023-03-17T14:24:01.806Z,18.5
2023-03-17T14:34:04.389Z,18.5
2023-03-17T14:44:06.060Z,18.4
2023-03-17T14:54:07.869Z,18.3
2023-03-17T15:04:09.723Z,18.3
2023-03-17T15:14:11.631Z,18.2
2023-03-17T15:24:14.124Z,18.1
2023-03-17T15:34:16.732Z,18
2023-03-17T15:44:19.263Z,17.6
2023-03-17T15:54:20.919Z,17.4
2023-03-17T16:04:23.194Z,17
2023-03-17T16:14:24.952Z,16.9
2023-03-17T16:24:26.887Z,16.7
2023-03-17T16:34:28.990Z,16.5
2023-03-17T16:44:31.616Z,16.3
2023-03-17T16:54:33.305Z,16
2023-03-17T17:04:34.950Z,16
2023-03-17T17:14:36.722Z,15.7
2023-03-17T17:24:38.956Z,15.2
2023-03-17T17:34:41.523Z,15.1
2023-03-17T17:44:43.263Z,15.1
2023-03-17T17:54:45.712Z,14.7
2023-03-17T18:04:48.355Z,14.7
2023-03-17T18:14:50.234Z,14.5
2023-03-17T18:24:51.980Z,14.2
2023-03-17T18:34:53.778Z,14
2023-03-17T18:44:55.555Z,14
2023-03-17T18:54:57.812Z,14
2023-03-17T19:04:59.502Z,14
2023-03-17T19:15:01.199Z,13.9
2023-03-17T19:35:04.890Z,13.4
2023-03-17T19:55:08.821Z,13.4
2023-03-17T20:15:13.075Z,13.1
2023-03-17T20:25:14.801Z,12.9
2023-03-17T20:35:17.276Z,12.8
2023-03-17T20:55:21.961Z,12.6
2023-03-17T21:05:24.393Z,12.9
2023-03-17T21:15:26.815Z,13.5
2023-03-17T21:25:29.470Z,13.5
2023-03-17T21:35:31.700Z,13.4
2023-03-17T21:45:33.562Z,13.3
2023-03-17T21:55:35.575Z,13.2
2023-03-17T22:05:37.236Z,13.1
2023-03-17T22:15:39.123Z,12.9
2023-03-17T22:25:40.796Z,12.9
2023-03-17T22:35:43.056Z,12.7
2023-03-17T22:45:45.660Z,12.7
2023-03-17T22:55:47.457Z,12.6
2023-03-17T23:05:49.328Z,12.8
2023-03-17T23:15:51.566Z,12.9
2023-03-17T23:35:56.105Z,13.2
2023-03-17T23:45:58.682Z,13
2023-03-17T23:56:00.490Z,12.8
